Terminal Aerodrome Forecast
Issued by NWS

Home | Current Version | Previous Version | Graphics & Text | Print | Product List | Glossary On
Versions: 1 2 3 4 5 6 7 8 9 10 11 12 13
000
FTUS42 KMHX 231700
TAFPGV
TAF
KPGV 231720Z 2318/2418 07007KT P6SM VCSH OVC040
     FM232300 07010KT 4SM RA BR OVC007 WS015/13035KT
     FM240600 26008G15KT 3SM -RA BR OVC004 WS015/20045KT
     FM241200 30006KT 3SM -RA BR OVC007
      AMD LTD TO CLD VIS AND WIND=

USA.gov is the U.S. government's official web portal to all federal, state and local government web resources and services.